Time;durP1;ratioP1;P1;durP2;ratioP2;P2;SDS_P1;SDS_P2;PMS_P1;PMS_P2;Temp;Humidity;BMP_temperature;BMP_pressure;BME280_temperature;BME280_humidity;BME280_pressure;Samples;Min_cycle;Max_cycle;Signal;HPM_P1;HPM_P2
2022/05/22 00:00:14;;;;;;;0.40;0.40;;;10.20;99.90;;;;;;5074144;28;20052;-72
2022/05/22 00:02:41;;;;;;;0.40;0.40;;;10.10;99.90;;;;;;5073985;28;20127;-72
2022/05/22 00:05:08;;;;;;;0.40;0.40;;;10.10;99.90;;;;;;5074028;28;20048;-72
2022/05/22 00:07:34;;;;;;;0.40;0.40;;;10.10;99.90;;;;;;5073800;28;20485;-72
2022/05/22 00:10:01;;;;;;;0.40;0.40;;;10.10;99.90;;;;;;5074194;28;20097;-72
2022/05/22 00:12:27;;;;;;;0.40;0.40;;;10.10;99.90;;;;;;5073913;28;20119;-72
2022/05/22 00:14:52;;;;;;;0.40;0.40;;;10.00;99.90;;;;;;5073951;28;20044;-72
2022/05/22 00:17:18;;;;;;;1.05;1.05;;;9.90;99.90;;;;;;5073838;28;20283;-73
2022/05/22 00:19:44;;;;;;;0.40;0.40;;;9.90;99.90;;;;;;5073727;28;20083;-72
2022/05/22 00:22:09;;;;;;;0.40;0.40;;;9.90;99.90;;;;;;5073714;28;20131;-72
2022/05/22 00:24:36;;;;;;;0.50;0.50;;;9.90;99.90;;;;;;5073734;28;20502;-72
2022/05/22 00:27:02;;;;;;;0.40;0.40;;;9.80;99.90;;;;;;5073704;28;20052;-72
2022/05/22 00:29:29;;;;;;;0.40;0.40;;;9.80;99.90;;;;;;5073916;28;20040;-72
2022/05/22 00:31:55;;;;;;;;;;;9.80;99.90;;;;;;5074030;28;20090;-72
2022/05/22 00:34:21;;;;;;;0.40;0.40;;;9.70;99.90;;;;;;5073530;28;19971;-72
2022/05/22 00:36:47;;;;;;;0.40;0.40;;;9.70;99.90;;;;;;5074057;28;20045;-72
2022/05/22 00:39:12;;;;;;;0.40;0.40;;;9.60;99.90;;;;;;5073947;28;20500;-72
2022/05/22 00:41:39;;;;;;;0.43;0.43;;;9.50;99.90;;;;;;5075355;28;20123;-72
2022/05/22 00:44:06;;;;;;;0.60;0.60;;;9.50;99.90;;;;;;5077676;28;20059;-73
2022/05/22 00:46:33;;;;;;;0.50;0.50;;;9.60;99.90;;;;;;5077621;28;20097;-71
2022/05/22 00:49:02;;;;;;;;;;;9.50;99.90;;;;;;5077928;28;20052;-72
2022/05/22 00:51:40;;;;;;;0.45;0.45;;;9.50;99.90;;;;;;5077488;28;20288;-72
2022/05/22 00:54:21;;;;;;;0.40;0.40;;;9.50;99.90;;;;;;5077550;28;20044;-72
2022/05/22 00:56:53;;;;;;;0.40;0.40;;;9.50;99.90;;;;;;5077451;28;20048;-72
2022/05/22 00:59:29;;;;;;;0.40;0.40;;;9.50;99.90;;;;;;5076492;28;20052;-72
2022/05/22 01:01:58;;;;;;;0.40;0.40;;;9.40;99.90;;;;;;5077007;28;20488;-72
2022/05/22 01:04:27;;;;;;;0.40;0.40;;;9.40;99.90;;;;;;5077273;28;20048;-72
2022/05/22 01:06:52;;;;;;;0.40;0.40;;;9.40;99.90;;;;;;5077131;28;20044;-72
2022/05/22 01:09:19;;;;;;;0.50;0.50;;;9.30;99.90;;;;;;5077044;28;20052;-72
2022/05/22 01:11:44;;;;;;;0.50;0.50;;;9.30;99.90;;;;;;5077260;28;20066;-72
2022/05/22 01:14:14;;;;;;;0.40;0.40;;;9.30;99.90;;;;;;5077121;28;20127;-72
2022/05/22 01:16:39;;;;;;;0.50;0.50;;;9.20;99.90;;;;;;5076892;28;20195;-72
2022/05/22 01:19:15;;;;;;;0.40;0.40;;;9.20;99.90;;;;;;5077039;28;20084;-72
2022/05/22 01:22:09;;;;;;;3.20;1.40;;;9.20;99.90;;;;;;5077146;28;20119;-72
2022/05/22 01:24:35;;;;;;;0.40;0.40;;;9.20;99.90;;;;;;5074725;28;20061;-72
2022/05/22 01:27:06;;;;;;;0.47;0.47;;;9.30;99.90;;;;;;5076850;28;20051;-72
2022/05/22 01:29:32;;;;;;;0.43;0.43;;;9.30;99.90;;;;;;5077328;28;20777;-73
2022/05/22 01:31:58;;;;;;;0.40;0.40;;;9.20;99.90;;;;;;5077017;28;20428;-73
2022/05/22 01:34:24;;;;;;;0.50;0.50;;;9.20;99.90;;;;;;5076882;28;20370;-73
2022/05/22 01:36:49;;;;;;;0.68;0.68;;;9.20;99.90;;;;;;5076383;28;20528;-73
2022/05/22 01:39:15;;;;;;;0.40;0.40;;;9.20;99.90;;;;;;5076534;28;20087;-73
2022/05/22 01:41:41;;;;;;;0.50;0.50;;;9.10;99.90;;;;;;5076893;28;20044;-72
2022/05/22 01:44:06;;;;;;;0.50;0.50;;;9.10;99.90;;;;;;5076829;28;20476;-72
2022/05/22 01:46:32;;;;;;;0.50;0.50;;;9.10;99.90;;;;;;5076734;28;20049;-73
2022/05/22 01:48:58;;;;;;;0.45;0.45;;;9.00;99.90;;;;;;5076500;28;20484;-73
2022/05/22 01:51:25;;;;;;;0.50;0.50;;;9.00;99.90;;;;;;5076415;28;20420;-72
2022/05/22 01:53:51;;;;;;;0.50;0.50;;;9.00;99.90;;;;;;5074945;28;20071;-73
2022/05/22 01:56:17;;;;;;;0.40;0.40;;;8.90;99.90;;;;;;5076362;28;20481;-71
2022/05/22 01:58:42;;;;;;;1.20;1.10;;;8.90;99.90;;;;;;5076243;28;20423;-72
2022/05/22 02:01:09;;;;;;;0.50;0.50;;;8.90;99.90;;;;;;5076215;28;20048;-72
2022/05/22 02:03:34;;;;;;;0.40;0.40;;;8.90;99.90;;;;;;5076360;28;20087;-71
2022/05/22 02:06:00;;;;;;;0.50;0.50;;;8.90;99.90;;;;;;5076225;28;20080;-72
2022/05/22 02:08:26;;;;;;;0.40;0.40;;;8.90;99.90;;;;;;5076028;28;20090;-71
2022/05/22 02:10:55;;;;;;;0.50;0.50;;;8.80;99.90;;;;;;5076525;28;20048;-73
2022/05/22 02:13:24;;;;;;;0.40;0.40;;;8.80;99.90;;;;;;5076044;28;20043;-72
2022/05/22 02:15:50;;;;;;;0.50;0.50;;;8.80;99.90;;;;;;5075655;28;20419;-71
2022/05/22 02:18:16;;;;;;;0.40;0.40;;;8.70;99.90;;;;;;5075887;28;20040;-71
2022/05/22 02:20:43;;;;;;;0.40;0.40;;;8.70;99.90;;;;;;5075922;28;20465;-71
2022/05/22 02:23:08;;;;;;;0.50;0.50;;;8.60;99.90;;;;;;5075774;28;20131;-71
2022/05/22 02:25:37;;;;;;;0.50;0.50;;;8.60;99.90;;;;;;5075557;28;20123;-72
2022/05/22 02:28:05;;;;;;;0.40;0.40;;;8.60;99.90;;;;;;5074934;28;20499;-71
2022/05/22 02:30:35;;;;;;;0.40;0.40;;;8.50;99.90;;;;;;5075960;28;20044;-71
2022/05/22 02:33:00;;;;;;;0.50;0.50;;;8.40;99.90;;;;;;5075565;28;20099;-72
2022/05/22 02:35:26;;;;;;;0.50;0.50;;;8.50;99.90;;;;;;5075553;28;20045;-72
2022/05/22 02:37:54;;;;;;;0.50;0.50;;;8.50;99.90;;;;;;5075562;28;20052;-72
2022/05/22 02:40:22;;;;;;;0.50;0.50;;;8.40;99.90;;;;;;5075504;28;20048;-73
2022/05/22 02:42:49;;;;;;;0.50;0.50;;;8.40;99.90;;;;;;5075683;28;20036;-72
2022/05/22 02:45:20;;;;;;;0.50;0.50;;;8.40;99.90;;;;;;5075348;28;20507;-72
2022/05/22 02:47:46;;;;;;;0.50;0.50;;;8.30;99.90;;;;;;5075362;28;20404;-72
2022/05/22 02:50:13;;;;;;;0.50;0.50;;;8.20;99.90;;;;;;5075181;28;20040;-72
2022/05/22 02:52:39;;;;;;;0.50;0.50;;;8.10;99.90;;;;;;5075202;28;20051;-72
2022/05/22 02:55:06;;;;;;;0.50;0.50;;;8.00;99.90;;;;;;5075228;28;20396;-72
2022/05/22 02:57:33;;;;;;;0.50;0.50;;;8.10;99.90;;;;;;5075103;28;20053;-72
2022/05/22 02:59:58;;;;;;;0.47;0.47;;;8.10;99.90;;;;;;5075112;28;20127;-72
2022/05/22 03:02:24;;;;;;;0.50;0.50;;;8.10;99.90;;;;;;5075071;28;20139;-72
2022/05/22 03:04:50;;;;;;;0.50;0.50;;;8.00;99.90;;;;;;5074581;28;20052;-71
2022/05/22 03:07:18;;;;;;;0.50;0.50;;;8.00;99.90;;;;;;5075066;28;20434;-71
2022/05/22 03:09:45;;;;;;;0.50;0.50;;;8.10;99.90;;;;;;5075136;28;20467;-72
2022/05/22 03:12:14;;;;;;;0.50;0.50;;;8.10;99.90;;;;;;5074806;28;20043;-72
2022/05/22 03:14:44;;;;;;;0.50;0.50;;;8.10;99.90;;;;;;5074952;28;20049;-71
2022/05/22 03:17:09;;;;;;;0.50;0.50;;;8.10;99.90;;;;;;5074694;28;20388;-71
2022/05/22 03:19:35;;;;;;;0.57;0.57;;;8.10;99.90;;;;;;5074598;28;20049;-71
2022/05/22 03:22:01;;;;;;;0.50;0.50;;;8.10;99.90;;;;;;5074794;28;20053;-73
2022/05/22 03:24:26;;;;;;;0.50;0.50;;;8.10;99.90;;;;;;5074601;28;20052;-72
2022/05/22 03:26:52;;;;;;;0.50;0.50;;;8.10;99.90;;;;;;5074857;28;20098;-72
2022/05/22 03:29:17;;;;;;;10.75;3.50;;;8.00;99.90;;;;;;5074494;28;20047;-72
2022/05/22 03:31:43;;;;;;;0.50;0.50;;;8.00;99.90;;;;;;5074434;28;20539;-73
2022/05/22 03:34:09;;;;;;;0.50;0.50;;;7.90;99.90;;;;;;5074357;28;20076;-72
2022/05/22 03:36:38;;;;;;;0.50;0.50;;;7.90;99.90;;;;;;5074833;28;20093;-72
2022/05/22 03:39:04;;;;;;;0.50;0.50;;;7.80;99.90;;;;;;5074668;28;20048;-72
2022/05/22 03:41:30;;;;;;;0.50;0.50;;;7.90;99.90;;;;;;5073320;28;20037;-72
2022/05/22 03:43:55;;;;;;;0.50;0.50;;;8.00;99.90;;;;;;5074268;28;20374;-72
2022/05/22 03:46:21;;;;;;;0.40;0.40;;;8.00;99.90;;;;;;5074351;28;20119;-72
2022/05/22 03:48:47;;;;;;;0.50;0.50;;;8.10;99.90;;;;;;5074126;28;20128;-72
2022/05/22 03:51:13;;;;;;;0.50;0.50;;;8.20;99.90;;;;;;5074148;28;20049;-72
2022/05/22 03:53:38;;;;;;;0.50;0.50;;;8.10;99.90;;;;;;5074141;28;20051;-72
2022/05/22 03:56:11;;;;;;;0.50;0.50;;;8.20;99.90;;;;;;5074310;28;20055;-72
2022/05/22 03:58:37;;;;;;;0.50;0.50;;;8.20;99.90;;;;;;5074027;28;20047;-72
2022/05/22 04:01:02;;;;;;;0.50;0.50;;;8.30;99.90;;;;;;5073941;28;20419;-71
2022/05/22 04:03:28;;;;;;;0.50;0.50;;;8.40;99.90;;;;;;5073706;28;20052;-71
2022/05/22 04:05:54;;;;;;;0.50;0.50;;;8.40;99.90;;;;;;5074015;28;20094;-72
2022/05/22 04:08:19;;;;;;;0.50;0.50;;;8.40;99.90;;;;;;5073893;28;20040;-72
2022/05/22 04:10:45;;;;;;;0.50;0.50;;;8.50;99.90;;;;;;5073889;28;20201;-72
2022/05/22 04:13:10;;;;;;;0.50;0.50;;;8.50;99.90;;;;;;5073540;28;20036;-73
2022/05/22 04:15:36;;;;;;;0.40;0.40;;;8.50;99.90;;;;;;5073258;28;20053;-72
2022/05/22 04:18:01;;;;;;;0.50;0.50;;;8.60;99.90;;;;;;5073729;28;20499;-72
2022/05/22 04:20:28;;;;;;;0.50;0.50;;;8.60;99.90;;;;;;5074290;28;20046;-72
2022/05/22 04:25:38;;;;;;;0.50;0.50;;;8.50;99.90;;;;;;5073993;28;20052;-71
2022/05/22 04:28:04;;;;;;;0.40;0.40;;;8.50;99.90;;;;;;5073643;28;20041;-72
2022/05/22 04:30:29;;;;;;;0.40;0.40;;;8.50;99.90;;;;;;5073638;28;20041;-71
2022/05/22 04:32:55;;;;;;;0.50;0.50;;;8.60;99.90;;;;;;5073641;28;20047;-72
2022/05/22 04:35:22;;;;;;;0.40;0.40;;;8.70;99.90;;;;;;5073645;28;20480;-73
2022/05/22 04:37:47;;;;;;;0.50;0.50;;;8.80;99.90;;;;;;5073619;28;20045;-72
2022/05/22 04:40:14;;;;;;;0.60;0.60;;;8.80;99.90;;;;;;5073576;28;20044;-72
2022/05/22 04:42:40;;;;;;;0.50;0.50;;;8.90;99.90;;;;;;5073433;28;20480;-72
2022/05/22 04:45:07;;;;;;;0.50;0.50;;;8.90;99.90;;;;;;5073476;28;20074;-72
2022/05/22 04:47:38;;;;;;;0.45;0.45;;;9.00;99.90;;;;;;5073489;28;20392;-72
2022/05/22 04:50:05;;;;;;;0.57;0.57;;;9.00;99.90;;;;;;5073167;28;20496;-72
2022/05/22 04:52:31;;;;;;;0.57;0.57;;;9.10;99.90;;;;;;5073727;28;20106;-72
2022/05/22 04:54:57;;;;;;;0.50;0.50;;;9.10;99.90;;;;;;5073391;28;20040;-72
2022/05/22 04:57:22;;;;;;;0.40;0.40;;;9.20;99.90;;;;;;5073427;28;20045;-71
2022/05/22 04:59:48;;;;;;;0.50;0.50;;;9.20;99.90;;;;;;5073302;28;20049;-72
2022/05/22 05:02:13;;;;;;;0.50;0.50;;;9.20;99.90;;;;;;5073804;28;20389;-72
2022/05/22 05:04:39;;;;;;;0.50;0.50;;;9.30;99.90;;;;;;5073331;28;20519;-72
2022/05/22 05:07:06;;;;;;;0.50;0.50;;;9.30;99.90;;;;;;5073364;28;20048;-72
2022/05/22 05:09:31;;;;;;;0.70;0.70;;;9.30;99.90;;;;;;5073173;28;20500;-72
2022/05/22 05:12:00;;;;;;;0.50;0.50;;;9.40;99.90;;;;;;5073307;28;20036;-72
2022/05/22 05:14:26;;;;;;;0.50;0.50;;;9.50;99.90;;;;;;5073218;28;20040;-72
2022/05/22 05:16:51;;;;;;;1.13;0.50;;;9.50;99.90;;;;;;5073976;28;20060;-72
2022/05/22 05:19:17;;;;;;;0.50;0.50;;;9.60;99.90;;;;;;5073228;28;20127;-72
2022/05/22 05:21:42;;;;;;;0.50;0.50;;;9.70;99.90;;;;;;5073405;28;20079;-72
2022/05/22 05:24:08;;;;;;;0.60;0.60;;;9.70;99.90;;;;;;5072859;28;20040;-72
2022/05/22 05:26:35;;;;;;;0.63;0.63;;;9.80;99.90;;;;;;5073042;28;20045;-72
2022/05/22 05:29:00;;;;;;;0.63;0.63;;;9.90;99.90;;;;;;5077095;28;20515;-72
2022/05/22 05:31:26;;;;;;;0.40;0.40;;;10.00;99.90;;;;;;5077000;28;20072;-72
2022/05/22 05:33:52;;;;;;;0.45;0.45;;;10.20;99.90;;;;;;5076732;28;20473;-73
2022/05/22 05:36:17;;;;;;;0.40;0.40;;;10.40;99.90;;;;;;5075858;28;20094;-73
2022/05/22 05:38:43;;;;;;;0.40;0.40;;;10.60;99.90;;;;;;5076644;28;20499;-72
2022/05/22 05:41:08;;;;;;;0.50;0.50;;;10.80;99.90;;;;;;5076552;28;20045;-73
2022/05/22 05:43:34;;;;;;;0.45;0.45;;;11.10;99.90;;;;;;5076571;28;20485;-72
2022/05/22 05:46:00;;;;;;;0.40;0.40;;;11.40;99.90;;;;;;5076828;28;20128;-73
2022/05/22 05:48:25;;;;;;;0.40;0.40;;;11.70;99.90;;;;;;5076585;28;20044;-73
2022/05/22 05:50:51;;;;;;;0.40;0.40;;;12.10;99.90;;;;;;5076940;28;20078;-73
2022/05/22 05:53:16;;;;;;;0.45;0.45;;;12.30;99.90;;;;;;5076470;28;20131;-73
2022/05/22 05:55:42;;;;;;;0.40;0.40;;;12.70;99.90;;;;;;5076487;28;20045;-72
2022/05/22 05:58:08;;;;;;;0.40;0.40;;;13.00;99.90;;;;;;5076413;28;20498;-73
2022/05/22 06:00:33;;;;;;;0.40;0.40;;;13.30;99.90;;;;;;5076345;28;20052;-73
2022/05/22 06:03:00;;;;;;;0.40;0.40;;;13.50;99.90;;;;;;5076634;28;20037;-71
2022/05/22 06:05:25;;;;;;;0.30;0.30;;;13.80;99.90;;;;;;5076542;28;20059;-72
2022/05/22 06:07:52;;;;;;;0.30;0.30;;;14.00;99.90;;;;;;5076466;28;20463;-73
2022/05/22 06:10:19;;;;;;;0.45;0.45;;;14.30;99.90;;;;;;5076215;28;20049;-73
2022/05/22 06:12:46;;;;;;;0.40;0.40;;;14.50;99.90;;;;;;5076084;28;20125;-72
2022/05/22 06:15:13;;;;;;;2.58;1.33;;;14.70;99.90;;;;;;5075875;28;20049;-73
2022/05/22 06:17:44;;;;;;;0.40;0.40;;;14.90;99.90;;;;;;5075980;28;20041;-72
2022/05/22 06:20:13;;;;;;;0.50;0.50;;;15.00;99.90;;;;;;5075960;28;20044;-73
2022/05/22 06:22:38;;;;;;;0.50;0.50;;;15.10;99.90;;;;;;5075529;28;20045;-72
2022/05/22 06:25:07;;;;;;;0.63;0.63;;;15.10;99.90;;;;;;5075898;28;20124;-73
2022/05/22 06:27:32;;;;;;;0.40;0.40;;;15.10;99.90;;;;;;5075269;28;20492;-73
2022/05/22 06:29:58;;;;;;;0.40;0.40;;;15.10;99.90;;;;;;5076183;28;20052;-73
2022/05/22 06:32:24;;;;;;;0.40;0.40;;;15.10;99.90;;;;;;5075742;28;20033;-72
2022/05/22 06:34:50;;;;;;;0.40;0.40;;;15.10;99.90;;;;;;5074714;28;20049;-72
2022/05/22 06:37:19;;;;;;;4.80;0.97;;;15.10;99.90;;;;;;5075636;28;20044;-72
2022/05/22 06:39:51;;;;;;;2.83;2.38;;;15.10;99.90;;;;;;5074836;28;20503;-71
2022/05/22 06:42:29;;;;;;;0.40;0.40;;;15.10;99.90;;;;;;5075437;28;20076;-72
2022/05/22 06:44:58;;;;;;;;;;;15.10;99.90;;;;;;5075841;28;20063;-71
2022/05/22 06:47:27;;;;;;;0.30;0.30;;;15.20;99.90;;;;;;5075734;28;20296;-71
2022/05/22 06:49:53;;;;;;;0.30;0.30;;;15.40;99.90;;;;;;5077403;28;20147;-71
2022/05/22 06:52:19;;;;;;;0.30;0.30;;;15.30;99.90;;;;;;5078197;28;20037;-71
2022/05/22 06:54:45;;;;;;;0.40;0.40;;;15.30;99.90;;;;;;5077418;28;20079;-71
2022/05/22 06:57:15;;;;;;;0.40;0.40;;;15.40;99.90;;;;;;5075872;28;20562;-71
2022/05/22 06:59:43;;;;;;;2.35;2.05;;;15.50;99.90;;;;;;5075308;28;20392;-73
2022/05/22 07:02:08;;;;;;;0.40;0.40;;;15.60;99.90;;;;;;5074777;28;20481;-71
2022/05/22 07:04:34;;;;;;;0.30;0.30;;;15.60;99.90;;;;;;5075113;28;20043;-72
2022/05/22 07:06:59;;;;;;;0.60;0.60;;;15.70;99.90;;;;;;5074968;28;20366;-72
2022/05/22 07:09:25;;;;;;;0.40;0.40;;;15.80;99.90;;;;;;5074655;28;20088;-72
2022/05/22 07:11:54;;;;;;;0.63;0.40;;;15.90;99.90;;;;;;5075356;28;20392;-72
2022/05/22 07:14:21;;;;;;;0.40;0.40;;;16.00;99.90;;;;;;5075365;28;20048;-73
2022/05/22 07:16:46;;;;;;;0.40;0.40;;;16.20;99.90;;;;;;5074686;28;20049;-72
2022/05/22 07:19:12;;;;;;;0.40;0.40;;;16.30;99.90;;;;;;5074779;28;20106;-73
2022/05/22 07:21:38;;;;;;;0.40;0.40;;;16.30;99.90;;;;;;5074629;28;20055;-72
2022/05/22 07:24:04;;;;;;;0.30;0.30;;;16.40;99.90;;;;;;5074604;28;20040;-72
2022/05/22 07:26:30;;;;;;;0.40;0.40;;;16.50;99.90;;;;;;5073190;28;20123;-73
2022/05/22 07:29:01;;;;;;;0.65;0.65;;;16.60;99.90;;;;;;5074976;28;20055;-73
2022/05/22 07:31:27;;;;;;;0.30;0.30;;;16.60;99.90;;;;;;5074491;28;20044;-72
2022/05/22 07:33:53;;;;;;;0.38;0.38;;;16.70;99.90;;;;;;5074507;28;20044;-72
2022/05/22 07:36:19;;;;;;;0.30;0.30;;;16.70;99.90;;;;;;5074476;28;20044;-72
2022/05/22 07:38:46;;;;;;;0.75;0.47;;;16.80;99.90;;;;;;5074299;28;20056;-72
2022/05/22 07:41:12;;;;;;;0.65;0.50;;;17.00;99.90;;;;;;5074713;28;20040;-72
2022/05/22 07:43:38;;;;;;;0.30;0.30;;;17.00;99.90;;;;;;5074311;28;20082;-72
2022/05/22 07:46:05;;;;;;;0.40;0.40;;;17.30;99.90;;;;;;5074321;28;20040;-72
2022/05/22 07:48:31;;;;;;;;;;;17.20;99.90;;;;;;5074890;28;20058;-72
2022/05/22 07:50:58;;;;;;;0.55;0.55;;;17.20;99.90;;;;;;5074178;28;19920;-72
2022/05/22 07:53:25;;;;;;;0.30;0.30;;;17.20;99.90;;;;;;5074015;28;20484;-72
2022/05/22 07:55:50;;;;;;;0.47;0.47;;;17.30;99.90;;;;;;5074828;28;20067;-72
2022/05/22 07:58:18;;;;;;;0.53;0.50;;;17.30;99.90;;;;;;5074136;28;20468;-72
2022/05/22 08:00:44;;;;;;;0.30;0.30;;;17.40;99.90;;;;;;5074021;28;20052;-72
2022/05/22 08:03:11;;;;;;;0.30;0.30;;;17.40;99.90;;;;;;5073749;28;20511;-72
2022/05/22 08:05:37;;;;;;;0.20;0.20;;;17.50;99.90;;;;;;5073964;28;20063;-72
2022/05/22 08:08:03;;;;;;;0.20;0.20;;;17.60;99.90;;;;;;5073940;28;20044;-72
2022/05/22 08:10:29;;;;;;;0.30;0.30;;;17.80;99.90;;;;;;5074689;28;20140;-72
2022/05/22 08:12:54;;;;;;;0.30;0.30;;;17.90;99.90;;;;;;5073803;28;20541;-73
2022/05/22 08:15:22;;;;;;;0.40;0.40;;;18.10;99.90;;;;;;5072667;28;20040;-72
2022/05/22 08:17:48;;;;;;;0.43;0.43;;;18.10;99.90;;;;;;5073851;28;20040;-72
2022/05/22 08:20:17;;;;;;;0.30;0.30;;;18.00;99.90;;;;;;5073608;28;20045;-72
2022/05/22 08:22:44;;;;;;;0.30;0.30;;;18.20;99.90;;;;;;5073538;28;20052;-72
2022/05/22 08:25:11;;;;;;;0.73;0.73;;;18.20;99.90;;;;;;5073762;28;20051;-72
2022/05/22 08:27:36;;;;;;;;;;;18.20;99.90;;;;;;5074205;28;20041;-73
2022/05/22 08:30:03;;;;;;;1.98;0.60;;;18.20;99.90;;;;;;5073704;28;20019;-72
2022/05/22 08:32:29;;;;;;;0.30;0.30;;;18.20;99.90;;;;;;5073573;28;20045;-72
2022/05/22 08:34:55;;;;;;;0.40;0.40;;;18.20;99.90;;;;;;5073238;28;20051;-72
2022/05/22 08:37:21;;;;;;;0.30;0.30;;;18.20;99.90;;;;;;5075362;28;20047;-72
2022/05/22 08:39:47;;;;;;;0.30;0.30;;;18.30;99.90;;;;;;5093470;28;20066;-73
2022/05/22 08:42:19;;;;;;;0.30;0.30;;;18.40;99.90;;;;;;5091378;28;20094;-75
2022/05/22 08:44:49;;;;;;;0.35;0.35;;;18.40;99.90;;;;;;5093797;28;20194;-75
2022/05/22 08:47:22;;;;;;;0.40;0.40;;;18.30;99.90;;;;;;5093727;28;20091;-76
2022/05/22 08:50:01;;;;;;;0.30;0.30;;;18.00;99.90;;;;;;5093562;28;20051;-72
2022/05/22 08:53:02;;;;;;;5.88;4.90;;;17.90;99.90;;;;;;5091514;28;20127;-73
2022/05/22 09:01:15;;;;;;;0.30;0.30;;;17.80;99.90;;;;;;5093013;28;20445;-72
2022/05/22 09:03:52;;;;;;;0.43;0.43;;;17.80;99.90;;;;;;5097420;28;20102;-72
2022/05/22 09:06:27;;;;;;;0.30;0.30;;;17.80;99.90;;;;;;5097690;28;20048;-72
2022/05/22 09:08:53;;;;;;;0.30;0.30;;;17.90;99.90;;;;;;5097671;28;20385;-72
2022/05/22 09:11:57;;;;;;;0.30;0.30;;;18.10;99.90;;;;;;5097517;28;20173;-72
2022/05/22 09:14:43;;;;;;;0.30;0.30;;;18.40;99.90;;;;;;5097575;28;20062;-71
2022/05/22 09:17:18;;;;;;;0.30;0.30;;;18.60;99.90;;;;;;5097883;28;20391;-72
2022/05/22 09:19:51;;;;;;;0.30;0.30;;;19.00;99.90;;;;;;5097258;28;20136;-72
2022/05/22 09:22:31;;;;;;;0.30;0.30;;;19.20;99.90;;;;;;5097499;28;20044;-73
2022/05/22 09:25:04;;;;;;;0.40;0.40;;;19.70;99.90;;;;;;5097317;28;20044;-72
2022/05/22 09:27:41;;;;;;;0.50;0.50;;;20.00;99.90;;;;;;5097169;28;20050;-71
2022/05/22 09:30:32;;;;;;;0.40;0.40;;;20.00;99.90;;;;;;5097501;28;20040;-72
2022/05/22 09:33:07;;;;;;;0.30;0.30;;;20.00;99.90;;;;;;5097159;28;20044;-71
2022/05/22 09:35:47;;;;;;;0.30;0.30;;;20.00;99.90;;;;;;5097090;28;20093;-71
2022/05/22 09:38:22;;;;;;;0.40;0.40;;;19.80;99.90;;;;;;5097045;28;20506;-72
2022/05/22 09:40:50;;;;;;;0.30;0.30;;;19.50;99.90;;;;;;5097003;28;20048;-72
2022/05/22 09:43:52;;;;;;;0.30;0.30;;;19.40;99.90;;;;;;5096857;28;20039;-73
2022/05/22 09:46:21;;;;;;;0.30;0.30;;;19.10;99.90;;;;;;5095516;28;20052;-73
2022/05/22 09:49:04;;;;;;;0.30;0.30;;;18.90;99.90;;;;;;5096737;28;20399;-72
2022/05/22 09:51:38;;;;;;;0.20;0.20;;;18.80;99.90;;;;;;5096819;28;20537;-72
2022/05/22 09:54:38;;;;;;;0.63;0.50;;;18.60;99.90;;;;;;5096744;28;20499;-72
2022/05/22 09:57:22;;;;;;;0.30;0.30;;;18.50;99.90;;;;;;5096695;28;20079;-72
2022/05/22 10:00:08;;;;;;;0.40;0.40;;;18.40;99.90;;;;;;5096516;28;20044;-72
2022/05/22 10:02:43;;;;;;;1.33;1.02;;;18.50;99.90;;;;;;5096663;28;20132;-71
2022/05/22 10:05:33;;;;;;;0.35;0.35;;;18.60;99.90;;;;;;5096386;28;20048;-72
2022/05/22 10:08:16;;;;;;;0.30;0.30;;;19.00;99.90;;;;;;5101186;28;20055;-72
2022/05/22 10:11:04;;;;;;;0.20;0.20;;;19.30;99.90;;;;;;5108976;28;20052;-72
2022/05/22 10:13:49;;;;;;;0.30;0.30;;;19.60;99.90;;;;;;5101885;28;20052;-71
2022/05/22 10:16:33;;;;;;;0.43;0.43;;;19.80;99.90;;;;;;5096762;28;20074;-72
2022/05/22 10:19:24;;;;;;;3.20;0.73;;;19.80;99.90;;;;;;5096553;28;20040;-72
2022/05/22 10:22:08;;;;;;;0.50;0.50;;;19.60;99.90;;;;;;5096051;28;20051;-72
2022/05/22 10:24:39;;;;;;;0.60;0.60;;;20.00;99.90;;;;;;5096631;28;20136;-73
2022/05/22 10:27:45;;;;;;;0.20;0.20;;;20.30;99.90;;;;;;5096110;28;20055;-73
2022/05/22 10:30:13;;;;;;;0.30;0.30;;;20.40;99.90;;;;;;5095987;28;20044;-73
2022/05/22 10:32:48;;;;;;;3.08;0.57;;;20.60;99.90;;;;;;5095872;28;20043;-73
2022/05/22 10:35:22;;;;;;;0.30;0.30;;;20.80;99.70;;;;;;5096318;28;20461;-73
2022/05/22 10:38:05;;;;;;;0.30;0.30;;;20.40;97.40;;;;;;5096230;28;20054;-73
2022/05/22 10:42:45;;;;;;;0.43;0.38;;;20.40;98.30;;;;;;5095855;28;20131;-73
2022/05/22 10:43:16;;;;;;;0.73;0.73;;;20.30;99.70;;;;;;5095387;28;20511;-72
2022/05/22 10:45:42;;;;;;;0.30;0.30;;;20.40;98.90;;;;;;5095550;28;20076;-72
2022/05/22 10:48:12;;;;;;;0.40;0.30;;;20.40;99.30;;;;;;5095566;28;20089;-72
2022/05/22 10:50:51;;;;;;;0.20;0.20;;;20.60;99.30;;;;;;5095486;28;20090;-72
2022/05/22 10:53:37;;;;;;;0.30;0.30;;;20.80;99.00;;;;;;5095466;28;20097;-73
2022/05/22 10:56:06;;;;;;;0.60;0.60;;;20.90;99.90;;;;;;5095515;28;20506;-73
2022/05/22 10:58:35;;;;;;;0.20;0.20;;;20.90;99.90;;;;;;5095469;28;20123;-73
2022/05/22 11:01:14;;;;;;;0.30;0.30;;;20.90;99.30;;;;;;5095304;28;20122;-73
2022/05/22 11:03:40;;;;;;;0.30;0.30;;;20.70;99.90;;;;;;5095267;28;20076;-72
2022/05/22 11:06:20;;;;;;;0.20;0.20;;;20.60;99.90;;;;;;5095307;28;20492;-72
2022/05/22 11:08:55;;;;;;;0.30;0.30;;;20.40;99.90;;;;;;5095048;28;20127;-72
2022/05/22 11:11:27;;;;;;;0.32;0.32;;;20.30;99.30;;;;;;5095365;28;20040;-72
2022/05/22 11:14:03;;;;;;;0.30;0.30;;;20.00;99.90;;;;;;5095265;28;20051;-73
2022/05/22 11:16:29;;;;;;;0.20;0.20;;;19.90;99.90;;;;;;5095142;28;20173;-72
2022/05/22 11:19:25;;;;;;;0.30;0.30;;;19.70;99.90;;;;;;5095536;28;20091;-72
2022/05/22 11:22:29;;;;;;;0.30;0.30;;;19.60;99.90;;;;;;5093220;28;20138;-73
2022/05/22 11:25:14;;;;;;;0.20;0.20;;;19.40;99.90;;;;;;5094633;28;20492;-72
2022/05/22 11:28:04;;;;;;;0.30;0.30;;;19.40;99.60;;;;;;5095306;28;20087;-72
2022/05/22 11:30:52;;;;;;;0.30;0.30;;;19.50;99.90;;;;;;5094786;28;20157;-71
2022/05/22 11:33:23;;;;;;;0.30;0.30;;;19.90;98.70;;;;;;5094793;28;20088;-72
2022/05/22 11:36:19;;;;;;;0.20;0.20;;;20.30;99.20;;;;;;5094494;28;20514;-73
2022/05/22 11:38:54;;;;;;;0.30;0.30;;;20.80;99.90;;;;;;5094690;28;20052;-74
2022/05/22 11:41:24;;;;;;;0.30;0.30;;;21.30;99.00;;;;;;5094525;28;20044;-73
2022/05/22 11:44:20;;;;;;;0.30;0.30;;;21.60;98.60;;;;;;5094527;28;20048;-73
2022/05/22 11:47:18;;;;;;;0.90;0.57;;;21.90;96.70;;;;;;5094551;28;20044;-73
2022/05/22 11:50:22;;;;;;;0.28;0.28;;;22.00;96.00;;;;;;5094494;28;20044;-73
2022/05/22 11:53:30;;;;;;;0.30;0.30;;;22.20;95.60;;;;;;5094717;28;20449;-73
2022/05/22 11:55:58;;;;;;;0.20;0.20;;;22.40;95.30;;;;;;5094163;28;20050;-72
2022/05/22 11:58:36;;;;;;;0.30;0.30;;;22.60;94.50;;;;;;5094762;28;20070;-72
2022/05/22 12:01:04;;;;;;;;;;;22.50;93.20;;;;;;5095010;28;20158;-73
2022/05/22 12:04:14;;;;;;;0.20;0.20;;;22.40;95.00;;;;;;5094160;28;20386;-73
2022/05/22 12:06:59;;;;;;;0.30;0.30;;;22.50;95.40;;;;;;5094659;28;20369;-72
2022/05/22 12:09:43;;;;;;;0.20;0.20;;;22.30;95.50;;;;;;5094166;28;20060;-73
2022/05/22 12:12:18;;;;;;;0.30;0.30;;;22.00;96.40;;;;;;5094068;28;20044;-72
2022/05/22 12:15:01;;;;;;;0.20;0.20;;;21.60;96.10;;;;;;5093111;28;20491;-72
2022/05/22 12:18:12;;;;;;;0.20;0.20;;;21.30;97.60;;;;;;5094656;28;20090;-72
2022/05/22 12:20:48;;;;;;;0.20;0.20;;;21.20;98.30;;;;;;5089964;28;20052;-72
2022/05/22 12:23:40;;;;;;;0.30;0.30;;;20.90;98.10;;;;;;5093949;28;20094;-72
2022/05/22 12:26:09;;;;;;;0.30;0.30;;;20.60;97.90;;;;;;5094234;28;20086;-72
2022/05/22 12:28:44;;;;;;;0.30;0.30;;;20.40;98.00;;;;;;5093855;28;20079;-73
2022/05/22 12:31:15;;;;;;;0.20;0.20;;;20.30;98.70;;;;;;5094031;28;20090;-72
2022/05/22 12:33:40;;;;;;;0.20;0.20;;;20.10;97.60;;;;;;5093624;28;20476;-73
2022/05/22 12:36:09;;;;;;;0.20;0.20;;;20.00;99.50;;;;;;5093617;28;20051;-73
2022/05/22 12:38:55;;;;;;;0.20;0.20;;;20.10;98.70;;;;;;5093393;28;20385;-73
2022/05/22 12:41:29;;;;;;;0.20;0.20;;;20.00;98.40;;;;;;5093672;28;20044;-73
2022/05/22 12:43:57;;;;;;;0.20;0.20;;;20.00;99.10;;;;;;5092803;28;20056;-73
2022/05/22 12:46:25;;;;;;;0.32;0.32;;;20.00;98.80;;;;;;5094134;28;20043;-73
2022/05/22 12:49:01;;;;;;;0.28;0.28;;;20.00;99.70;;;;;;5094086;28;20051;-72
2022/05/22 12:51:38;;;;;;;0.20;0.20;;;20.00;98.10;;;;;;5094346;28;20418;-72
2022/05/22 12:54:22;;;;;;;0.20;0.20;;;19.90;98.00;;;;;;5093646;28;20058;-72
2022/05/22 12:56:49;;;;;;;0.30;0.30;;;19.90;99.70;;;;;;5094179;28;20373;-72
2022/05/22 12:59:23;;;;;;;0.30;0.30;;;19.90;99.90;;;;;;5093629;28;20055;-72
2022/05/22 13:01:57;;;;;;;0.28;0.28;;;19.80;99.90;;;;;;5093505;28;20123;-73
2022/05/22 13:04:26;;;;;;;1.40;0.50;;;19.90;99.90;;;;;;5093576;28;20384;-72
2022/05/22 13:06:56;;;;;;;0.20;0.20;;;19.90;99.80;;;;;;5093392;28;20488;-73
2022/05/22 13:09:31;;;;;;;0.20;0.20;;;19.90;98.60;;;;;;5093364;28;20114;-73
2022/05/22 13:12:00;;;;;;;0.30;0.30;;;19.90;99.90;;;;;;5093392;28;20044;-73
2022/05/22 13:14:41;;;;;;;0.30;0.30;;;19.90;99.70;;;;;;5093440;28;20420;-73
2022/05/22 13:17:12;;;;;;;0.30;0.30;;;19.90;98.90;;;;;;5093646;28;20056;-73
2022/05/22 13:19:55;;;;;;;0.30;0.30;;;19.90;99.20;;;;;;5093375;28;20105;-73